createdAt,value
2022-12-29T00:09:59.314Z,98493.78
2022-12-29T00:15:31.613Z,98485.63
2022-12-29T00:17:58.362Z,98489.59
2022-12-29T00:20:26.766Z,98469.72
2022-12-29T00:22:56.824Z,98468.47
2022-12-29T00:25:25.135Z,98470.38
2022-12-29T00:27:54.091Z,98463.69
2022-12-29T00:30:22.759Z,98469.78
2022-12-29T00:32:54.685Z,98481.41
2022-12-29T00:35:27.408Z,98447.50
2022-12-29T00:37:59.619Z,98458.00
2022-12-29T00:40:28.001Z,98475.78
2022-12-29T00:42:55.392Z,98454.38
2022-12-29T00:46:12.873Z,98469.41
2022-12-29T00:49:00.622Z,98465.94
2022-12-29T00:51:40.603Z,98469.25
2022-12-29T00:54:09.289Z,98440.88
2022-12-29T00:56:41.156Z,98449.75
2022-12-29T00:59:10.343Z,98448.69
2022-12-29T01:02:00.765Z,98428.66
2022-12-29T01:04:27.988Z,98449.31
2022-12-29T01:06:57.537Z,98448.56
2022-12-29T01:09:24.607Z,98445.72
2022-12-29T01:11:53.192Z,98433.25
2022-12-29T01:14:21.748Z,98440.28
2022-12-29T01:16:55.370Z,98439.06
2022-12-29T01:19:22.329Z,98435.28
2022-12-29T01:21:52.220Z,98440.28
2022-12-29T01:24:20.908Z,98455.50
2022-12-29T01:26:47.930Z,98449.09
2022-12-29T01:29:16.389Z,98460.50
2022-12-29T01:31:44.167Z,98444.72
2022-12-29T01:34:11.019Z,98464.78
2022-12-29T01:36:37.654Z,98445.31
2022-12-29T01:39:05.276Z,98456.09
2022-12-29T01:41:33.364Z,98432.66
2022-12-29T01:44:01.368Z,98436.22
2022-12-29T01:46:33.180Z,98439.97
2022-12-29T01:49:08.805Z,98446.47
2022-12-29T01:51:39.803Z,98437.31
2022-12-29T01:54:11.728Z,98440.56
2022-12-29T01:56:38.469Z,98440.41
2022-12-29T01:59:10.860Z,98428.78
2022-12-29T02:01:39.013Z,98418.75
2022-12-29T02:04:06.090Z,98418.63
2022-12-29T02:06:39.197Z,98423.09
2022-12-29T02:09:05.865Z,98422.88
2022-12-29T02:11:32.928Z,98418.66
2022-12-29T02:14:03.454Z,98417.91
2022-12-29T02:16:43.279Z,98414.63
2022-12-29T02:19:46.557Z,98425.78
2022-12-29T02:22:24.172Z,98420.72
2022-12-29T02:25:35.453Z,98421.59
2022-12-29T02:28:38.934Z,98418.06
2022-12-29T02:31:15.367Z,98399.63
2022-12-29T02:33:58.136Z,98386.75
2022-12-29T02:40:02.885Z,98395.41
2022-12-29T02:42:37.247Z,98385.38
2022-12-29T02:45:14.806Z,98380.47
2022-12-29T02:47:49.696Z,98380.03
2022-12-29T02:50:22.228Z,98380.19
2022-12-29T02:52:54.213Z,98373.88
2022-12-29T02:55:22.969Z,98374.53
2022-12-29T02:57:49.639Z,98371.34
2022-12-29T03:00:18.712Z,98372.09
2022-12-29T03:03:07.879Z,98364.03
2022-12-29T03:05:57.573Z,98365.22
2022-12-29T03:08:33.062Z,98358.59
2022-12-29T03:11:03.632Z,98356.16
2022-12-29T03:13:37.406Z,98360.19
2022-12-29T03:16:12.644Z,98351.88
2022-12-29T03:19:01.397Z,98348.44
2022-12-29T03:21:34.914Z,98357.09
2022-12-29T03:24:01.975Z,98335.09
2022-12-29T03:26:29.337Z,98345.94
2022-12-29T03:28:56.565Z,98346.84
2022-12-29T03:31:25.906Z,98338.13
2022-12-29T03:33:57.163Z,98341.03
2022-12-29T03:36:31.306Z,98355.09
2022-12-29T03:39:04.291Z,98344.59
2022-12-29T03:41:34.399Z,98343.31
2022-12-29T03:44:03.655Z,98335.88
2022-12-29T03:46:30.483Z,98332.44
2022-12-29T03:52:32.177Z,98319.47
2022-12-29T03:54:59.092Z,98340.47
2022-12-29T03:57:25.710Z,98336.88
2022-12-29T04:00:00.851Z,98335.13
2022-12-29T04:02:29.562Z,98325.38
2022-12-29T04:04:59.673Z,98300.09
2022-12-29T04:07:31.245Z,98297.81
2022-12-29T04:09:59.751Z,98302.75
2022-12-29T04:12:26.381Z,98306.63
2022-12-29T04:14:56.810Z,98303.03
2022-12-29T04:20:32.681Z,98275.28
2022-12-29T04:23:11.108Z,98288.06
2022-12-29T04:25:41.241Z,98297.97
2022-12-29T04:28:08.650Z,98309.72
2022-12-29T04:30:40.592Z,98320.63
2022-12-29T04:33:10.622Z,98324.56
2022-12-29T04:35:43.170Z,98325.28
2022-12-29T04:38:13.838Z,98329.97
2022-12-29T04:40:43.563Z,98323.25
2022-12-29T04:43:13.171Z,98321.78
2022-12-29T04:45:43.992Z,98316.22
2022-12-29T04:48:12.118Z,98314.91
2022-12-29T04:54:05.524Z,98321.34
2022-12-29T04:56:33.200Z,98314.44
2022-12-29T04:59:02.105Z,98304.00
2022-12-29T05:01:30.646Z,98321.03
2022-12-29T05:03:57.501Z,98338.75
2022-12-29T05:06:24.623Z,98337.31
2022-12-29T05:08:51.433Z,98319.97
2022-12-29T05:11:28.355Z,98318.97
2022-12-29T05:13:55.519Z,98327.84
2022-12-29T05:16:23.434Z,98331.84
2022-12-29T05:18:55.837Z,98334.28
2022-12-29T05:21:23.868Z,98324.84
2022-12-29T05:23:53.447Z,98336.03
2022-12-29T05:26:24.644Z,98332.16
2022-12-29T05:28:53.487Z,98343.50
2022-12-29T05:31:20.959Z,98351.94
2022-12-29T05:33:54.857Z,98350.34
2022-12-29T05:36:21.828Z,98336.03
2022-12-29T05:38:48.403Z,98356.38
2022-12-29T05:44:45.945Z,98341.63
2022-12-29T05:47:17.948Z,98319.38
2022-12-29T05:49:47.664Z,98328.97
2022-12-29T05:52:17.311Z,98338.75
2022-12-29T05:54:50.349Z,98321.75
2022-12-29T05:57:22.048Z,98369.00
2022-12-29T05:59:57.555Z,98352.94
2022-12-29T06:02:28.953Z,98347.63
2022-12-29T06:04:55.778Z,98360.84
2022-12-29T06:07:22.328Z,98359.97
2022-12-29T06:09:48.940Z,98365.72
2022-12-29T06:12:19.139Z,98374.44
2022-12-29T06:14:45.814Z,98370.59
2022-12-29T06:17:13.683Z,98367.88
2022-12-29T06:20:26.446Z,98368.03
2022-12-29T06:22:56.442Z,98379.91
2022-12-29T06:25:23.383Z,98377.25
2022-12-29T06:31:01.030Z,98368.75
2022-12-29T06:33:33.448Z,98375.66
2022-12-29T06:36:03.817Z,98391.09
2022-12-29T06:38:33.925Z,98389.38
2022-12-29T06:41:00.866Z,98406.16
2022-12-29T06:43:29.551Z,98387.63
2022-12-29T06:45:56.075Z,98404.44
2022-12-29T06:48:23.406Z,98414.88
2022-12-29T06:50:51.840Z,98419.63
2022-12-29T06:53:36.447Z,98413.50
2022-12-29T06:56:25.249Z,98415.31
2022-12-29T06:58:52.777Z,98428.66
2022-12-29T07:04:48.575Z,98438.13
2022-12-29T07:07:22.359Z,98435.13
2022-12-29T07:09:53.741Z,98429.69
2022-12-29T07:15:04.393Z,98410.97
2022-12-29T07:17:30.957Z,98428.81
2022-12-29T07:20:06.473Z,98427.81
2022-12-29T07:22:37.021Z,98420.66
2022-12-29T07:25:15.037Z,98427.19
2022-12-29T07:27:51.376Z,98451.31
2022-12-29T07:33:53.124Z,98443.19
2022-12-29T07:36:40.615Z,98453.09
2022-12-29T07:39:15.225Z,98463.56
2022-12-29T07:41:51.334Z,98457.59
2022-12-29T07:47:56.662Z,98470.25
2022-12-29T07:50:37.577Z,98478.94
2022-12-29T07:53:26.770Z,98475.03
2022-12-29T07:56:14.118Z,98478.72
2022-12-29T07:59:02.777Z,98487.88
2022-12-29T08:01:39.607Z,98500.09
2022-12-29T08:07:28.567Z,98486.44
2022-12-29T08:14:09.366Z,98493.22
2022-12-29T08:17:26.891Z,98485.88
2022-12-29T08:23:08.686Z,98491.63
2022-12-29T08:25:37.212Z,98498.09
2022-12-29T08:28:06.249Z,98478.34
2022-12-29T08:30:44.356Z,98497.19
2022-12-29T08:33:17.842Z,98495.81
2022-12-29T08:35:47.633Z,98510.88
2022-12-29T08:38:20.046Z,98500.13
2022-12-29T08:40:46.799Z,98502.84
2022-12-29T08:43:18.544Z,98513.16
2022-12-29T08:46:00.963Z,98516.88
2022-12-29T08:48:29.851Z,98510.66
2022-12-29T08:50:56.986Z,98523.31
2022-12-29T08:53:24.497Z,98530.06
2022-12-29T08:56:03.711Z,98538.09
2022-12-29T08:58:33.514Z,98535.19
2022-12-29T09:01:04.664Z,98548.41
2022-12-29T09:04:04.461Z,98548.19
2022-12-29T09:06:22.575Z,98540.41
2022-12-29T09:08:50.192Z,98538.66
2022-12-29T09:11:24.433Z,98555.50
2022-12-29T09:13:51.661Z,98541.34
2022-12-29T09:16:22.244Z,98545.50
2022-12-29T09:18:49.253Z,98557.94
2022-12-29T09:21:17.965Z,98546.66
2022-12-29T09:23:49.774Z,98567.94
2022-12-29T09:26:35.472Z,98567.91
2022-12-29T09:29:02.023Z,98574.72
2022-12-29T09:31:30.096Z,98562.09
2022-12-29T09:34:22.570Z,98566.13
2022-12-29T09:37:08.132Z,98558.81
2022-12-29T09:39:34.865Z,98577.75
2022-12-29T09:42:09.590Z,98591.28
2022-12-29T09:47:49.551Z,98579.53
2022-12-29T09:50:24.287Z,98599.91
2022-12-29T09:53:06.340Z,98585.81
2022-12-29T09:55:37.677Z,98595.41
2022-12-29T09:58:09.912Z,98587.88
2022-12-29T10:00:47.549Z,98585.78
2022-12-29T10:03:22.037Z,98570.88
2022-12-29T10:06:01.214Z,98576.66
2022-12-29T10:08:36.633Z,98569.75
2022-12-29T10:11:18.091Z,98558.34
2022-12-29T10:13:59.678Z,98572.53
2022-12-29T10:17:03.062Z,98549.03
2022-12-29T10:19:42.254Z,98572.44
2022-12-29T10:22:22.162Z,98584.09
2022-12-29T10:24:54.487Z,98589.25
2022-12-29T10:27:22.319Z,98570.72
2022-12-29T10:29:53.217Z,98591.41
2022-12-29T10:32:37.851Z,98571.63
2022-12-29T10:35:15.457Z,98580.78
2022-12-29T10:38:40.109Z,98601.03
2022-12-29T10:41:16.106Z,98576.34
2022-12-29T10:43:47.540Z,98576.38
2022-12-29T10:46:17.125Z,98598.50
2022-12-29T10:48:44.428Z,98584.41
2022-12-29T10:51:21.103Z,98626.25
2022-12-29T10:53:52.975Z,98601.03
2022-12-29T10:56:28.478Z,98599.44
2022-12-29T10:58:58.156Z,98599.19
2022-12-29T11:01:31.973Z,98608.81
2022-12-29T11:04:05.437Z,98621.34
2022-12-29T11:06:33.500Z,98614.03
2022-12-29T11:09:12.849Z,98623.34
2022-12-29T11:11:40.109Z,98611.25
2022-12-29T11:14:21.400Z,98620.84
2022-12-29T11:16:58.477Z,98622.56
2022-12-29T11:19:26.954Z,98605.84
2022-12-29T11:21:57.793Z,98641.06
2022-12-29T11:24:27.405Z,98628.50
2022-12-29T11:26:55.783Z,98633.38
2022-12-29T11:29:26.040Z,98624.41
2022-12-29T11:31:54.446Z,98644.88
2022-12-29T11:34:23.369Z,98660.31
2022-12-29T11:36:54.374Z,98647.22
2022-12-29T11:39:35.919Z,98657.66
2022-12-29T11:42:04.486Z,98664.69
2022-12-29T11:44:38.165Z,98652.31
2022-12-29T11:47:10.428Z,98652.94
2022-12-29T11:49:39.699Z,98674.75
2022-12-29T11:52:08.649Z,98668.63
2022-12-29T11:54:39.107Z,98667.78
2022-12-29T11:57:16.843Z,98664.44
2022-12-29T11:59:50.247Z,98673.47
2022-12-29T12:02:46.532Z,98662.56
2022-12-29T12:05:29.148Z,98672.50
2022-12-29T12:08:00.574Z,98669.78
2022-12-29T12:10:37.062Z,98685.09
2022-12-29T12:13:12.171Z,98666.78
2022-12-29T12:15:47.435Z,98674.13
2022-12-29T12:18:23.249Z,98693.59
2022-12-29T12:20:56.475Z,98684.16
2022-12-29T12:23:37.406Z,98687.38
2022-12-29T12:26:13.903Z,98681.28
2022-12-29T12:28:49.551Z,98668.53
2022-12-29T12:31:28.907Z,98678.66
2022-12-29T12:34:00.019Z,98681.47
2022-12-29T12:36:55.900Z,98671.84
2022-12-29T12:39:29.219Z,98683.25
2022-12-29T12:42:16.405Z,98683.97
2022-12-29T12:44:53.972Z,98667.72
2022-12-29T12:47:46.431Z,98692.28
2022-12-29T12:50:30.830Z,98703.19
2022-12-29T12:53:17.667Z,98707.41
2022-12-29T12:55:57.285Z,98691.38
2022-12-29T12:59:07.337Z,98714.06
2022-12-29T13:01:45.979Z,98699.00
2022-12-29T13:05:11.208Z,98683.59
2022-12-29T13:07:49.983Z,98685.13
2022-12-29T13:10:45.916Z,98682.75
2022-12-29T13:13:36.429Z,98706.13
2022-12-29T13:16:14.823Z,98700.44
2022-12-29T13:18:49.806Z,98699.00
2022-12-29T13:21:29.524Z,98713.38
2022-12-29T13:24:03.670Z,98723.19
2022-12-29T13:26:34.846Z,98713.16
2022-12-29T13:29:16.466Z,98711.69
2022-12-29T13:31:51.801Z,98700.13
2022-12-29T13:34:39.221Z,98715.81
2022-12-29T13:37:16.018Z,98713.84
2022-12-29T13:39:49.521Z,98700.31
2022-12-29T13:42:19.758Z,98718.75
2022-12-29T13:44:53.839Z,98709.00
2022-12-29T13:47:29.481Z,98718.41
2022-12-29T13:49:59.868Z,98720.06
2022-12-29T13:52:38.049Z,98721.00
2022-12-29T13:55:26.991Z,98715.00
2022-12-29T13:58:02.023Z,98711.31
2022-12-29T14:00:35.676Z,98721.63
2022-12-29T14:03:30.210Z,98741.56
2022-12-29T14:06:16.517Z,98741.56
2022-12-29T14:08:45.341Z,98736.28
2022-12-29T14:11:15.182Z,98737.22
2022-12-29T14:13:46.475Z,98734.19
2022-12-29T14:16:29.788Z,98747.53
2022-12-29T14:19:06.724Z,98734.28
2022-12-29T14:21:35.452Z,98744.00
2022-12-29T14:24:40.604Z,98735.41
2022-12-29T14:27:44.955Z,98756.72
2022-12-29T14:30:48.922Z,98753.00
2022-12-29T14:33:17.489Z,98741.72
2022-12-29T14:35:51.712Z,98744.44
2022-12-29T14:38:23.333Z,98736.38
2022-12-29T14:40:52.061Z,98759.03
2022-12-29T14:43:25.474Z,98768.53
2022-12-29T14:49:20.072Z,98766.50
2022-12-29T14:51:52.983Z,98774.13
2022-12-29T14:54:43.182Z,98783.84
2022-12-29T14:57:19.991Z,98783.72
2022-12-29T15:03:24.670Z,98750.59
2022-12-29T15:05:54.892Z,98755.44
2022-12-29T15:08:26.863Z,98789.41
2022-12-29T15:10:58.900Z,98774.00
2022-12-29T15:13:35.933Z,98768.03
2022-12-29T15:16:03.969Z,98770.34
2022-12-29T15:18:32.232Z,98776.47
2022-12-29T15:21:01.265Z,98776.72
2022-12-29T15:23:32.911Z,98784.53
2022-12-29T15:26:02.294Z,98795.53
2022-12-29T15:28:38.464Z,98790.53
2022-12-29T15:31:07.531Z,98792.88
2022-12-29T15:33:40.613Z,98804.69
2022-12-29T15:36:12.821Z,98802.50
2022-12-29T15:38:41.011Z,98792.75
2022-12-29T15:41:16.346Z,98801.41
2022-12-29T15:43:54.153Z,98804.03
2022-12-29T15:46:21.776Z,98813.78
2022-12-29T15:48:49.189Z,98810.06
2022-12-29T15:51:20.663Z,98822.66
2022-12-29T15:53:51.368Z,98818.25
2022-12-29T15:56:18.547Z,98827.03
2022-12-29T15:58:47.321Z,98815.03
2022-12-29T16:01:19.602Z,98831.38
2022-12-29T16:03:47.576Z,98835.09
2022-12-29T16:06:28.948Z,98844.88
2022-12-29T16:09:02.694Z,98846.34
2022-12-29T16:11:34.238Z,98843.97
2022-12-29T16:14:07.576Z,98852.16
2022-12-29T16:16:38.576Z,98838.16
2022-12-29T16:19:14.268Z,98839.66
2022-12-29T16:21:42.972Z,98829.75
2022-12-29T16:24:23.550Z,98838.78
2022-12-29T16:26:56.449Z,98838.41
2022-12-29T16:29:24.515Z,98838.31
2022-12-29T16:31:55.022Z,98836.19
2022-12-29T16:34:26.518Z,98840.13
2022-12-29T16:36:56.540Z,98843.59
2022-12-29T16:39:31.203Z,98842.47
2022-12-29T16:42:00.559Z,98840.41
2022-12-29T16:44:28.830Z,98843.34
2022-12-29T16:47:19.415Z,98860.03
2022-12-29T16:49:51.091Z,98865.47
2022-12-29T16:52:21.633Z,98859.56
2022-12-29T16:54:54.408Z,98866.00
2022-12-29T16:57:28.849Z,98870.09
2022-12-29T16:59:58.510Z,98873.66
2022-12-29T17:02:29.178Z,98875.78
2022-12-29T17:04:56.073Z,98878.31
2022-12-29T17:07:24.935Z,98882.06
2022-12-29T17:09:53.347Z,98880.97
2022-12-29T17:12:23.792Z,98875.78
2022-12-29T17:14:54.102Z,98894.06
2022-12-29T17:17:29.261Z,98916.59
2022-12-29T17:20:03.999Z,98893.94
2022-12-29T17:22:30.941Z,98911.09
2022-12-29T17:25:00.895Z,98897.72
2022-12-29T17:27:31.959Z,98904.59
2022-12-29T17:30:09.074Z,98894.19
2022-12-29T17:32:49.524Z,98890.81
2022-12-29T17:35:18.199Z,98903.06
2022-12-29T17:37:45.342Z,98906.41
2022-12-29T18:09:58.609Z,98940.09
2022-12-29T18:12:37.723Z,98945.38
2022-12-29T18:15:05.440Z,98951.44
2022-12-29T18:17:40.715Z,98959.66
2022-12-29T18:20:09.199Z,98956.94
2022-12-29T18:22:36.758Z,98940.81
2022-12-29T18:25:24.511Z,98959.59
2022-12-29T18:31:34.516Z,98968.56
2022-12-29T18:34:12.485Z,98976.69
2022-12-29T18:37:02.486Z,98976.50
2022-12-29T18:40:00.450Z,98982.91
2022-12-29T18:42:39.669Z,98975.75
2022-12-29T18:45:46.867Z,98986.19
2022-12-29T18:48:14.808Z,98981.81
2022-12-29T18:51:05.729Z,98993.78
2022-12-29T18:53:41.488Z,98983.75
2022-12-29T19:00:19.077Z,98978.63
2022-12-29T19:03:08.709Z,98998.16
2022-12-29T19:40:20.594Z,99032.47
2022-12-29T20:39:49.445Z,99095.72
2022-12-29T20:42:20.256Z,99103.06
2022-12-29T20:44:56.234Z,99103.66
2022-12-29T20:47:24.842Z,99106.56
2022-12-29T20:50:22.747Z,99113.78
2022-12-29T20:52:52.672Z,99100.16
2022-12-29T20:55:29.671Z,99114.28
2022-12-29T20:58:23.162Z,99119.00
2022-12-29T21:01:14.460Z,99108.50
2022-12-29T21:06:23.726Z,99118.47
2022-12-29T21:08:55.592Z,99116.50
2022-12-29T21:14:09.568Z,99109.56
2022-12-29T21:16:39.256Z,99109.63
2022-12-29T21:19:06.021Z,99122.50
2022-12-29T21:21:32.928Z,99107.44
2022-12-29T21:24:14.899Z,99116.50
2022-12-29T21:27:19.376Z,99102.97
2022-12-29T21:29:48.209Z,99124.44
2022-12-29T21:35:48.117Z,99136.16
2022-12-29T21:38:15.271Z,99135.38
2022-12-29T21:40:42.150Z,99125.91
2022-12-29T21:43:12.583Z,99117.84
2022-12-29T21:45:41.399Z,99123.47
2022-12-29T21:48:23.244Z,99125.22
2022-12-29T21:50:52.572Z,99126.56
2022-12-29T21:53:23.587Z,99119.59
2022-12-29T21:55:55.242Z,99124.84
2022-12-29T21:58:26.285Z,99129.88
2022-12-29T22:00:55.180Z,99122.50
2022-12-29T22:03:23.880Z,99140.97
2022-12-29T22:05:51.732Z,99129.97
2022-12-29T22:08:18.384Z,99129.47
2022-12-29T22:10:46.912Z,99138.06
2022-12-29T22:13:14.680Z,99137.81
2022-12-29T22:15:43.668Z,99142.91
2022-12-29T22:18:10.238Z,99152.06
2022-12-29T22:20:37.621Z,99139.44
2022-12-29T22:23:05.064Z,99145.59
2022-12-29T22:25:32.828Z,99149.75
2022-12-29T22:28:02.042Z,99146.34
2022-12-29T22:30:31.654Z,99148.66
2022-12-29T22:33:05.440Z,99152.25
2022-12-29T22:35:36.413Z,99149.44
2022-12-29T22:38:03.869Z,99161.06
2022-12-29T22:40:30.507Z,99159.28
2022-12-29T22:42:57.094Z,99153.78
2022-12-29T22:48:48.355Z,99172.06
2022-12-29T22:51:15.406Z,99170.88
2022-12-29T22:53:43.409Z,99173.88
2022-12-29T22:56:14.991Z,99177.69
2022-12-29T22:58:46.626Z,99187.00
2022-12-29T23:01:15.726Z,99178.50
2022-12-29T23:03:44.884Z,99194.44
2022-12-29T23:06:18.507Z,99203.34
2022-12-29T23:08:46.955Z,99202.38
2022-12-29T23:11:14.591Z,99210.44
2022-12-29T23:13:42.650Z,99208.00
2022-12-29T23:16:12.748Z,99219.16
2022-12-29T23:18:43.717Z,99229.53
2022-12-29T23:21:12.094Z,99211.59
2022-12-29T23:23:48.513Z,99221.94
2022-12-29T23:26:16.633Z,99228.38
2022-12-29T23:28:44.508Z,99238.69
2022-12-29T23:31:11.203Z,99244.97
2022-12-29T23:33:38.373Z,99258.13
2022-12-29T23:39:31.068Z,99267.81
2022-12-29T23:41:57.870Z,99280.38
2022-12-29T23:44:26.770Z,99284.22
2022-12-29T23:46:55.055Z,99288.94
2022-12-29T23:49:22.983Z,99280.56
2022-12-29T23:51:53.063Z,99282.41
2022-12-29T23:54:21.005Z,99292.88
2022-12-29T23:56:52.391Z,99284.75
2022-12-29T23:59:28.166Z,99285.78
